ESNN

Sundsvall-Härnösand Airport

Sundsvall/ Härnösand, Sweden
METAR ESNN 181720Z VRB02KT 9999 MIFG FEW022 12/11 Q1002
Observed Flight Rules
Sep-18 @ 17:20 UTC (38 minutes ago) Visual Flight Rules
Wind Visibility Clouds Conditions
Variable at 2 knots 10,000+ meters
  • Few at 2,200' AGL
  • Shallow
  • Fog
Temperatures Readings
Current 12°C / 54°F
Dewpoint 11°C / 52°F
Humidity 94%
Altimeter 29.59" Hg
Pressure 1002 hPa
Elevation 10
METAR ESNN 181720Z VRB02KT 9999 MIFG FEW022 12/11 Q1002
Observed Flight Rules
Sep-18 @ 17:20 UTC
(38 minutes ago)
VFR
Wind Visibility
Variable at 2 knots 10,000+ meters
Clouds
  • Few at 2,200' AGL
Conditions
  • Shallow
  • Fog
Temperature Dewpoint
12°C / 54°F 11°C / 52°F
Humidity Altimeter Pressure
94% 29.59" Hg 1002 hPa